Saint-Hubert, Canada
Current Conditions -  °F | °C
As of 8:00 AM on Friday 19 Dec 2014 (Local Time) from CYHU Reporting Station
Overcast Overcast  
Wind Chill: 15°   Ceiling: 2300
Heat Index: 25°   Visibility: 9mi
Dew Point: 18°   Wind: 9mph
Humidity: 74%   Direction: 300°WNW
Pressure: 30.04"   Gusts: NA
Location:  45.5°N, 73.47°W
Report Text: CYHU 191300Z AUTO 30008KT 9SM OVC023 M04/M08 A3004 RMK SLP175
Loading
Personal Weather Stations






























Interactive Weather Map New forecast layout! Learn more

10-Day Weather Forecast

Advertisements
Track Severe Weather on mobile